Flugplatz Ochsenfurt

Für EDGJ sind keine METAR/TAF Berichte vorhanden.
Es werden die Flugwettermeldungen vom Flugplatz Illesheim Air Base in 31 km Entfernung angezeigt.

Bericht für ETIK

vom 07.08. um 17:56 UTC

kein Wind

Sichtweite 10 km oder mehr

keine Wolken

Temperatur 30.5°C

Taupunkt 15.3°C

Luftfeuchtigkeit 40%

Luftdruck 1020 hPa

ETIK 071756Z AUTO 00000KT 9999 CLR 31/15 A3013 RMK AO2 SLP189 T03050153 10325 20300 55003

Prognose für ETIK

vom 07.08. um 14:32 UTC

Zwischen 14:00 UTC und 20:00 UTC

variable Windrichtung mit 6 kt

Sichtweite 10 km oder mehr

gering bewölkt in 6000 ft


Zwischen 20:00 und 21:00 UTC übergehend zu

variable Windrichtung mit 6 kt

Sichtweite 10 km oder mehr

gering bewölkt in 3000 ft

TAF ETIK 071432Z 0714/0820 VRB06KT 9999 FEW060 QNH3015INS BECMG 0720/0721 VRB06KT 9999 FEW030 QNH3014INS TX32/0715Z TN12/0803Z
Impressum